sensor_id;sensor_type;location;lat;lon;timestamp;P1;durP1;ratioP1;P2;durP2;ratioP2
60847;SDS011;46681;47.696;9.140;2023-08-20T00:01:09;5.07;;;3.83;;
60847;SDS011;46681;47.696;9.140;2023-08-20T00:03:37;4.80;;;4.40;;
60847;SDS011;46681;47.696;9.140;2023-08-20T00:06:06;7.13;;;4.40;;
60847;SDS011;46681;47.696;9.140;2023-08-20T00:08:32;4.50;;;4.10;;
60847;SDS011;46681;47.696;9.140;2023-08-20T00:10:57;4.50;;;4.07;;
60847;SDS011;46681;47.696;9.140;2023-08-20T00:13:24;4.07;;;3.77;;
60847;SDS011;46681;47.696;9.140;2023-08-20T00:15:52;4.83;;;4.43;;
60847;SDS011;46681;47.696;9.140;2023-08-20T00:18:20;5.83;;;3.90;;
60847;SDS011;46681;47.696;9.140;2023-08-20T00:20:48;6.00;;;4.20;;
60847;SDS011;46681;47.696;9.140;2023-08-20T00:23:14;4.97;;;4.20;;
60847;SDS011;46681;47.696;9.140;2023-08-20T00:25:40;4.47;;;4.07;;
60847;SDS011;46681;47.696;9.140;2023-08-20T00:28:06;4.53;;;4.13;;
60847;SDS011;46681;47.696;9.140;2023-08-20T00:30:32;4.97;;;3.90;;
60847;SDS011;46681;47.696;9.140;2023-08-20T00:32:57;4.43;;;4.03;;
60847;SDS011;46681;47.696;9.140;2023-08-20T00:35:23;6.00;;;4.33;;
60847;SDS011;46681;47.696;9.140;2023-08-20T00:37:48;4.50;;;4.10;;
60847;SDS011;46681;47.696;9.140;2023-08-20T00:40:15;4.90;;;3.93;;
60847;SDS011;46681;47.696;9.140;2023-08-20T00:42:41;4.60;;;4.27;;
60847;SDS011;46681;47.696;9.140;2023-08-20T00:45:06;3.73;;;3.43;;
60847;SDS011;46681;47.696;9.140;2023-08-20T00:47:32;4.93;;;4.50;;
60847;SDS011;46681;47.696;9.140;2023-08-20T00:49:59;4.40;;;4.10;;
60847;SDS011;46681;47.696;9.140;2023-08-20T00:52:24;4.43;;;4.10;;
60847;SDS011;46681;47.696;9.140;2023-08-20T00:54:50;4.53;;;4.10;;
60847;SDS011;46681;47.696;9.140;2023-08-20T00:57:17;7.67;;;4.00;;
60847;SDS011;46681;47.696;9.140;2023-08-20T00:59:44;5.63;;;4.53;;
60847;SDS011;46681;47.696;9.140;2023-08-20T01:02:18;4.37;;;4.07;;
60847;SDS011;46681;47.696;9.140;2023-08-20T01:04:44;5.20;;;4.50;;
60847;SDS011;46681;47.696;9.140;2023-08-20T01:13:09;4.53;;;4.23;;
60847;SDS011;46681;47.696;9.140;2023-08-20T01:15:35;4.50;;;4.10;;
60847;SDS011;46681;47.696;9.140;2023-08-20T01:18:00;4.37;;;4.07;;
60847;SDS011;46681;47.696;9.140;2023-08-20T01:20:27;3.93;;;3.70;;
60847;SDS011;46681;47.696;9.140;2023-08-20T01:28:55;4.03;;;3.73;;
60847;SDS011;46681;47.696;9.140;2023-08-20T01:31:23;4.30;;;4.00;;
60847;SDS011;46681;47.696;9.140;2023-08-20T01:33:50;4.80;;;4.20;;
60847;SDS011;46681;47.696;9.140;2023-08-20T01:36:16;4.47;;;4.17;;
60847;SDS011;46681;47.696;9.140;2023-08-20T01:38:42;5.37;;;4.50;;
60847;SDS011;46681;47.696;9.140;2023-08-20T01:41:07;5.17;;;4.20;;
60847;SDS011;46681;47.696;9.140;2023-08-20T01:43:33;4.53;;;4.23;;
60847;SDS011;46681;47.696;9.140;2023-08-20T01:45:59;4.70;;;4.20;;
60847;SDS011;46681;47.696;9.140;2023-08-20T01:48:24;4.57;;;4.10;;
60847;SDS011;46681;47.696;9.140;2023-08-20T01:50:50;4.67;;;4.30;;
60847;SDS011;46681;47.696;9.140;2023-08-20T01:53:15;4.60;;;4.20;;
60847;SDS011;46681;47.696;9.140;2023-08-20T01:55:44;4.30;;;4.00;;
60847;SDS011;46681;47.696;9.140;2023-08-20T01:58:12;6.50;;;4.53;;
60847;SDS011;46681;47.696;9.140;2023-08-20T02:00:40;4.90;;;4.50;;
60847;SDS011;46681;47.696;9.140;2023-08-20T02:03:06;4.43;;;4.10;;
60847;SDS011;46681;47.696;9.140;2023-08-20T02:08:11;5.03;;;4.20;;
60847;SDS011;46681;47.696;9.140;2023-08-20T02:10:43;4.70;;;4.30;;
60847;SDS011;46681;47.696;9.140;2023-08-20T02:13:17;4.77;;;4.27;;
60847;SDS011;46681;47.696;9.140;2023-08-20T02:15:56;4.90;;;4.40;;
60847;SDS011;46681;47.696;9.140;2023-08-20T02:18:33;5.10;;;4.27;;
60847;SDS011;46681;47.696;9.140;2023-08-20T02:21:09;4.30;;;4.00;;
60847;SDS011;46681;47.696;9.140;2023-08-20T02:23:40;4.67;;;4.27;;
60847;SDS011;46681;47.696;9.140;2023-08-20T02:38:18;4.30;;;4.00;;
60847;SDS011;46681;47.696;9.140;2023-08-20T02:40:51;4.30;;;4.00;;
60847;SDS011;46681;47.696;9.140;2023-08-20T02:43:17;5.00;;;4.50;;
60847;SDS011;46681;47.696;9.140;2023-08-20T02:45:43;4.77;;;4.37;;
60847;SDS011;46681;47.696;9.140;2023-08-20T02:48:09;5.30;;;4.13;;
60847;SDS011;46681;47.696;9.140;2023-08-20T02:50:34;4.67;;;4.20;;
60847;SDS011;46681;47.696;9.140;2023-08-20T02:53:06;5.00;;;4.60;;
60847;SDS011;46681;47.696;9.140;2023-08-20T02:55:32;5.07;;;4.67;;
60847;SDS011;46681;47.696;9.140;2023-08-20T02:58:06;6.80;;;4.80;;
60847;SDS011;46681;47.696;9.140;2023-08-20T03:00:39;5.97;;;4.83;;
60847;SDS011;46681;47.696;9.140;2023-08-20T03:03:08;4.93;;;4.53;;
60847;SDS011;46681;47.696;9.140;2023-08-20T03:05:44;4.73;;;4.23;;
60847;SDS011;46681;47.696;9.140;2023-08-20T03:08:09;4.73;;;4.37;;
60847;SDS011;46681;47.696;9.140;2023-08-20T03:10:38;5.07;;;4.47;;
60847;SDS011;46681;47.696;9.140;2023-08-20T03:13:04;5.00;;;4.60;;
60847;SDS011;46681;47.696;9.140;2023-08-20T03:15:30;5.03;;;4.63;;
60847;SDS011;46681;47.696;9.140;2023-08-20T03:33:33;4.80;;;4.40;;
60847;SDS011;46681;47.696;9.140;2023-08-20T03:36:07;5.53;;;4.57;;
60847;SDS011;46681;47.696;9.140;2023-08-20T03:38:42;5.27;;;4.20;;
60847;SDS011;46681;47.696;9.140;2023-08-20T03:41:12;4.80;;;4.40;;
60847;SDS011;46681;47.696;9.140;2023-08-20T04:08:11;5.47;;;4.77;;
60847;SDS011;46681;47.696;9.140;2023-08-20T04:10:45;5.10;;;4.60;;
60847;SDS011;46681;47.696;9.140;2023-08-20T04:13:16;5.87;;;4.73;;
60847;SDS011;46681;47.696;9.140;2023-08-20T04:15:53;5.37;;;4.87;;
60847;SDS011;46681;47.696;9.140;2023-08-20T04:18:19;4.90;;;4.50;;
60847;SDS011;46681;47.696;9.140;2023-08-20T04:20:54;4.87;;;4.37;;
60847;SDS011;46681;47.696;9.140;2023-08-20T04:23:24;5.70;;;4.87;;
60847;SDS011;46681;47.696;9.140;2023-08-20T04:25:53;6.93;;;5.03;;
60847;SDS011;46681;47.696;9.140;2023-08-20T04:28:18;5.30;;;4.80;;
60847;SDS011;46681;47.696;9.140;2023-08-20T04:30:44;4.57;;;4.27;;
60847;SDS011;46681;47.696;9.140;2023-08-20T04:33:34;5.53;;;4.70;;
60847;SDS011;46681;47.696;9.140;2023-08-20T04:36:00;5.00;;;4.60;;
60847;SDS011;46681;47.696;9.140;2023-08-20T05:02:31;4.87;;;4.47;;
60847;SDS011;46681;47.696;9.140;2023-08-20T05:05:01;8.00;;;5.07;;
60847;SDS011;46681;47.696;9.140;2023-08-20T05:07:34;5.50;;;5.07;;
60847;SDS011;46681;47.696;9.140;2023-08-20T05:10:00;5.50;;;4.70;;
60847;SDS011;46681;47.696;9.140;2023-08-20T05:12:31;5.40;;;5.00;;
60847;SDS011;46681;47.696;9.140;2023-08-20T05:15:01;5.03;;;4.63;;
60847;SDS011;46681;47.696;9.140;2023-08-20T05:17:39;5.50;;;5.00;;
60847;SDS011;46681;47.696;9.140;2023-08-20T05:20:16;5.27;;;4.77;;
60847;SDS011;46681;47.696;9.140;2023-08-20T05:22:43;5.70;;;5.20;;
60847;SDS011;46681;47.696;9.140;2023-08-20T05:25:19;5.33;;;4.83;;
60847;SDS011;46681;47.696;9.140;2023-08-20T05:27:45;5.03;;;4.53;;
60847;SDS011;46681;47.696;9.140;2023-08-20T05:30:11;4.63;;;4.27;;
60847;SDS011;46681;47.696;9.140;2023-08-20T05:32:43;5.50;;;5.00;;
60847;SDS011;46681;47.696;9.140;2023-08-20T05:38:37;6.07;;;5.47;;
60847;SDS011;46681;47.696;9.140;2023-08-20T05:41:16;12.33;;;5.03;;
60847;SDS011;46681;47.696;9.140;2023-08-20T05:43:54;7.87;;;5.80;;
60847;SDS011;46681;47.696;9.140;2023-08-20T05:46:22;8.13;;;5.53;;
60847;SDS011;46681;47.696;9.140;2023-08-20T05:48:51;6.77;;;6.03;;
60847;SDS011;46681;47.696;9.140;2023-08-20T05:51:17;9.47;;;5.87;;
60847;SDS011;46681;47.696;9.140;2023-08-20T05:53:44;6.40;;;5.87;;
60847;SDS011;46681;47.696;9.140;2023-08-20T05:56:19;8.30;;;5.73;;
60847;SDS011;46681;47.696;9.140;2023-08-20T05:58:45;5.97;;;5.47;;
60847;SDS011;46681;47.696;9.140;2023-08-20T06:01:19;6.47;;;5.87;;
60847;SDS011;46681;47.696;9.140;2023-08-20T06:03:49;6.37;;;5.60;;
60847;SDS011;46681;47.696;9.140;2023-08-20T06:06:19;6.80;;;6.20;;
60847;SDS011;46681;47.696;9.140;2023-08-20T06:08:46;12.50;;;6.10;;
60847;SDS011;46681;47.696;9.140;2023-08-20T06:11:15;6.70;;;6.13;;
60847;SDS011;46681;47.696;9.140;2023-08-20T06:13:43;7.87;;;6.60;;
60847;SDS011;46681;47.696;9.140;2023-08-20T06:16:08;9.57;;;7.43;;
60847;SDS011;46681;47.696;9.140;2023-08-20T06:18:40;9.47;;;7.57;;
60847;SDS011;46681;47.696;9.140;2023-08-20T06:21:16;12.10;;;8.27;;
60847;SDS011;46681;47.696;9.140;2023-08-20T06:23:42;11.63;;;8.37;;
60847;SDS011;46681;47.696;9.140;2023-08-20T06:26:08;8.67;;;7.00;;
60847;SDS011;46681;47.696;9.140;2023-08-20T06:28:33;9.27;;;7.37;;
60847;SDS011;46681;47.696;9.140;2023-08-20T06:31:00;10.20;;;7.17;;
60847;SDS011;46681;47.696;9.140;2023-08-20T06:33:25;11.77;;;7.20;;
60847;SDS011;46681;47.696;9.140;2023-08-20T06:35:53;7.60;;;6.90;;
60847;SDS011;46681;47.696;9.140;2023-08-20T06:38:28;9.10;;;6.77;;
60847;SDS011;46681;47.696;9.140;2023-08-20T06:40:58;7.13;;;6.43;;
60847;SDS011;46681;47.696;9.140;2023-08-20T06:43:30;7.40;;;6.43;;
60847;SDS011;46681;47.696;9.140;2023-08-20T06:46:07;8.57;;;6.63;;
60847;SDS011;46681;47.696;9.140;2023-08-20T06:48:48;7.63;;;6.87;;
60847;SDS011;46681;47.696;9.140;2023-08-20T06:54:33;6.80;;;6.30;;
60847;SDS011;46681;47.696;9.140;2023-08-20T06:57:04;6.83;;;6.23;;
60847;SDS011;46681;47.696;9.140;2023-08-20T07:02:42;7.70;;;6.40;;
60847;SDS011;46681;47.696;9.140;2023-08-20T07:05:19;7.43;;;6.43;;
60847;SDS011;46681;47.696;9.140;2023-08-20T07:07:47;7.10;;;6.50;;
60847;SDS011;46681;47.696;9.140;2023-08-20T07:10:20;6.40;;;5.80;;
60847;SDS011;46681;47.696;9.140;2023-08-20T07:13:11;6.87;;;6.27;;
60847;SDS011;46681;47.696;9.140;2023-08-20T07:15:42;6.73;;;5.97;;
60847;SDS011;46681;47.696;9.140;2023-08-20T07:18:30;6.67;;;6.07;;
60847;SDS011;46681;47.696;9.140;2023-08-20T07:56:22;6.47;;;5.90;;
60847;SDS011;46681;47.696;9.140;2023-08-20T07:58:57;5.80;;;5.23;;
60847;SDS011;46681;47.696;9.140;2023-08-20T08:34:25;5.43;;;4.93;;
60847;SDS011;46681;47.696;9.140;2023-08-20T08:59:45;5.60;;;5.10;;
60847;SDS011;46681;47.696;9.140;2023-08-20T11:09:44;8.20;;;4.43;;
60847;SDS011;46681;47.696;9.140;2023-08-20T11:12:50;6.67;;;4.57;;
60847;SDS011;46681;47.696;9.140;2023-08-20T11:15:42;6.38;;;4.15;;
60847;SDS011;46681;47.696;9.140;2023-08-20T11:19:00;4.45;;;4.10;;
60847;SDS011;46681;47.696;9.140;2023-08-20T11:22:24;6.20;;;4.40;;
60847;SDS011;46681;47.696;9.140;2023-08-20T12:36:47;4.10;;;3.78;;
60847;SDS011;46681;47.696;9.140;2023-08-20T12:45:38;3.78;;;3.47;;
60847;SDS011;46681;47.696;9.140;2023-08-20T13:03:37;6.43;;;3.40;;
60847;SDS011;46681;47.696;9.140;2023-08-20T13:07:03;7.10;;;3.80;;
60847;SDS011;46681;47.696;9.140;2023-08-20T13:10:13;4.25;;;3.35;;
60847;SDS011;46681;47.696;9.140;2023-08-20T13:16:19;7.03;;;3.38;;
60847;SDS011;46681;47.696;9.140;2023-08-20T13:19:18;3.92;;;3.30;;
60847;SDS011;46681;47.696;9.140;2023-08-20T13:22:05;4.57;;;3.72;;
60847;SDS011;46681;47.696;9.140;2023-08-20T13:24:43;3.65;;;3.35;;
60847;SDS011;46681;47.696;9.140;2023-08-20T13:27:34;3.85;;;3.30;;
60847;SDS011;46681;47.696;9.140;2023-08-20T13:30:34;4.40;;;3.05;;
60847;SDS011;46681;47.696;9.140;2023-08-20T13:33:45;4.22;;;3.28;;
60847;SDS011;46681;47.696;9.140;2023-08-20T13:37:02;4.95;;;3.75;;
60847;SDS011;46681;47.696;9.140;2023-08-20T13:46:15;4.05;;;3.10;;
60847;SDS011;46681;47.696;9.140;2023-08-20T13:55:42;5.45;;;3.30;;
60847;SDS011;46681;47.696;9.140;2023-08-20T14:26:20;3.55;;;2.60;;
60847;SDS011;46681;47.696;9.140;2023-08-20T14:29:06;4.50;;;2.40;;
60847;SDS011;46681;47.696;9.140;2023-08-20T14:34:41;2.65;;;2.40;;
60847;SDS011;46681;47.696;9.140;2023-08-20T14:40:30;5.90;;;2.80;;
60847;SDS011;46681;47.696;9.140;2023-08-20T14:43:27;3.42;;;2.60;;
60847;SDS011;46681;47.696;9.140;2023-08-20T14:46:16;4.40;;;2.47;;
60847;SDS011;46681;47.696;9.140;2023-08-20T14:52:04;3.40;;;2.17;;
60847;SDS011;46681;47.696;9.140;2023-08-20T14:54:40;4.70;;;2.60;;
60847;SDS011;46681;47.696;9.140;2023-08-20T14:57:20;3.60;;;2.35;;
60847;SDS011;46681;47.696;9.140;2023-08-20T15:00:05;2.75;;;2.38;;
60847;SDS011;46681;47.696;9.140;2023-08-20T15:03:07;4.03;;;2.47;;
60847;SDS011;46681;47.696;9.140;2023-08-20T15:15:07;4.15;;;2.47;;
60847;SDS011;46681;47.696;9.140;2023-08-20T15:18:04;2.67;;;2.28;;
60847;SDS011;46681;47.696;9.140;2023-08-20T15:42:43;4.17;;;2.60;;
60847;SDS011;46681;47.696;9.140;2023-08-20T15:48:56;3.03;;;2.53;;
60847;SDS011;46681;47.696;9.140;2023-08-20T16:07:43;2.73;;;2.10;;
60847;SDS011;46681;47.696;9.140;2023-08-20T16:10:28;2.70;;;2.20;;
60847;SDS011;46681;47.696;9.140;2023-08-20T16:12:58;3.33;;;2.33;;
60847;SDS011;46681;47.696;9.140;2023-08-20T16:15:33;2.37;;;2.17;;
60847;SDS011;46681;47.696;9.140;2023-08-20T16:18:07;2.37;;;2.27;;
60847;SDS011;46681;47.696;9.140;2023-08-20T16:21:11;3.43;;;2.20;;
60847;SDS011;46681;47.696;9.140;2023-08-20T16:26:50;3.63;;;2.17;;
60847;SDS011;46681;47.696;9.140;2023-08-20T16:29:38;3.40;;;2.17;;
60847;SDS011;46681;47.696;9.140;2023-08-20T16:32:08;2.90;;;2.00;;
60847;SDS011;46681;47.696;9.140;2023-08-20T16:34:43;2.87;;;2.27;;
60847;SDS011;46681;47.696;9.140;2023-08-20T16:37:36;2.43;;;2.23;;
60847;SDS011;46681;47.696;9.140;2023-08-20T16:40:29;3.83;;;2.10;;
60847;SDS011;46681;47.696;9.140;2023-08-20T16:43:06;3.90;;;2.20;;
60847;SDS011;46681;47.696;9.140;2023-08-20T16:45:53;4.00;;;2.10;;
60847;SDS011;46681;47.696;9.140;2023-08-20T16:52:00;2.63;;;2.03;;
60847;SDS011;46681;47.696;9.140;2023-08-20T16:54:45;3.40;;;2.07;;
60847;SDS011;46681;47.696;9.140;2023-08-20T16:57:38;2.97;;;1.90;;
60847;SDS011;46681;47.696;9.140;2023-08-20T17:00:28;2.20;;;2.00;;
60847;SDS011;46681;47.696;9.140;2023-08-20T17:03:21;3.03;;;1.90;;
60847;SDS011;46681;47.696;9.140;2023-08-20T17:06:03;2.50;;;2.30;;
60847;SDS011;46681;47.696;9.140;2023-08-20T17:08:47;2.33;;;2.13;;
60847;SDS011;46681;47.696;9.140;2023-08-20T17:11:12;3.23;;;2.20;;
60847;SDS011;46681;47.696;9.140;2023-08-20T17:13:43;2.37;;;1.97;;
60847;SDS011;46681;47.696;9.140;2023-08-20T17:16:29;2.57;;;2.00;;
60847;SDS011;46681;47.696;9.140;2023-08-20T17:22:10;2.90;;;1.87;;
60847;SDS011;46681;47.696;9.140;2023-08-20T17:24:51;4.30;;;2.13;;
60847;SDS011;46681;47.696;9.140;2023-08-20T17:27:43;2.50;;;2.27;;
60847;SDS011;46681;47.696;9.140;2023-08-20T17:40:00;3.63;;;2.13;;
60847;SDS011;46681;47.696;9.140;2023-08-20T17:42:39;2.73;;;2.40;;
60847;SDS011;46681;47.696;9.140;2023-08-20T17:45:05;2.43;;;2.20;;
60847;SDS011;46681;47.696;9.140;2023-08-20T17:47:54;5.07;;;2.20;;
60847;SDS011;46681;47.696;9.140;2023-08-20T17:50:37;2.43;;;2.30;;
60847;SDS011;46681;47.696;9.140;2023-08-20T17:53:19;3.30;;;2.30;;
60847;SDS011;46681;47.696;9.140;2023-08-20T17:55:57;3.83;;;2.40;;
60847;SDS011;46681;47.696;9.140;2023-08-20T17:58:24;4.00;;;2.67;;
60847;SDS011;46681;47.696;9.140;2023-08-20T18:00:50;2.53;;;2.10;;
60847;SDS011;46681;47.696;9.140;2023-08-20T18:03:23;2.97;;;2.57;;
60847;SDS011;46681;47.696;9.140;2023-08-20T18:06:06;3.20;;;2.47;;
60847;SDS011;46681;47.696;9.140;2023-08-20T18:08:48;2.43;;;2.23;;
60847;SDS011;46681;47.696;9.140;2023-08-20T18:11:17;4.27;;;2.20;;
60847;SDS011;46681;47.696;9.140;2023-08-20T18:14:04;5.33;;;2.60;;
60847;SDS011;46681;47.696;9.140;2023-08-20T18:17:01;3.57;;;2.63;;
60847;SDS011;46681;47.696;9.140;2023-08-20T18:19:34;2.67;;;2.43;;
60847;SDS011;46681;47.696;9.140;2023-08-20T18:22:03;3.30;;;2.43;;
60847;SDS011;46681;47.696;9.140;2023-08-20T18:24:51;2.87;;;2.63;;
60847;SDS011;46681;47.696;9.140;2023-08-20T18:27:56;3.53;;;2.23;;
60847;SDS011;46681;47.696;9.140;2023-08-20T18:30:49;3.00;;;2.40;;
60847;SDS011;46681;47.696;9.140;2023-08-20T18:33:20;3.30;;;2.30;;
60847;SDS011;46681;47.696;9.140;2023-08-20T18:36:00;2.87;;;2.23;;
60847;SDS011;46681;47.696;9.140;2023-08-20T18:38:39;3.33;;;2.77;;
60847;SDS011;46681;47.696;9.140;2023-08-20T18:41:10;2.67;;;2.47;;
60847;SDS011;46681;47.696;9.140;2023-08-20T18:43:53;3.00;;;2.70;;
60847;SDS011;46681;47.696;9.140;2023-08-20T18:46:35;2.73;;;2.53;;
60847;SDS011;46681;47.696;9.140;2023-08-20T21:21:42;4.33;;;3.93;;
60847;SDS011;46681;47.696;9.140;2023-08-20T21:24:35;3.50;;;3.30;;
60847;SDS011;46681;47.696;9.140;2023-08-20T21:27:10;4.80;;;4.10;;
60847;SDS011;46681;47.696;9.140;2023-08-20T21:29:40;3.90;;;3.50;;
60847;SDS011;46681;47.696;9.140;2023-08-20T21:32:14;4.53;;;3.87;;
60847;SDS011;46681;47.696;9.140;2023-08-20T21:34:45;4.97;;;3.83;;
60847;SDS011;46681;47.696;9.140;2023-08-20T21:37:32;5.13;;;4.30;;
60847;SDS011;46681;47.696;9.140;2023-08-20T21:39:58;6.50;;;4.40;;
60847;SDS011;46681;47.696;9.140;2023-08-20T21:42:28;4.13;;;3.77;;
60847;SDS011;46681;47.696;9.140;2023-08-20T21:44:56;4.50;;;4.07;;
60847;SDS011;46681;47.696;9.140;2023-08-20T21:47:22;5.10;;;4.27;;
60847;SDS011;46681;47.696;9.140;2023-08-20T21:49:50;4.70;;;4.10;;
60847;SDS011;46681;47.696;9.140;2023-08-20T21:52:16;4.27;;;3.87;;
60847;SDS011;46681;47.696;9.140;2023-08-20T21:54:45;4.53;;;4.13;;
60847;SDS011;46681;47.696;9.140;2023-08-20T21:57:20;5.33;;;4.30;;
60847;SDS011;46681;47.696;9.140;2023-08-20T21:59:50;5.20;;;4.40;;
60847;SDS011;46681;47.696;9.140;2023-08-20T22:02:17;4.73;;;4.13;;
60847;SDS011;46681;47.696;9.140;2023-08-20T22:04:46;5.17;;;4.70;;
60847;SDS011;46681;47.696;9.140;2023-08-20T22:07:32;4.93;;;4.50;;
60847;SDS011;46681;47.696;9.140;2023-08-20T22:09:57;6.27;;;4.63;;
60847;SDS011;46681;47.696;9.140;2023-08-20T22:12:23;4.57;;;4.17;;
60847;SDS011;46681;47.696;9.140;2023-08-20T22:14:48;5.13;;;4.13;;
60847;SDS011;46681;47.696;9.140;2023-08-20T22:17:14;4.57;;;4.17;;
60847;SDS011;46681;47.696;9.140;2023-08-20T22:19:46;6.03;;;4.60;;
60847;SDS011;46681;47.696;9.140;2023-08-20T22:22:15;4.57;;;4.17;;
60847;SDS011;46681;47.696;9.140;2023-08-20T22:24:43;4.93;;;4.53;;
60847;SDS011;46681;47.696;9.140;2023-08-20T22:27:12;4.83;;;4.43;;
60847;SDS011;46681;47.696;9.140;2023-08-20T22:29:38;6.17;;;4.67;;
60847;SDS011;46681;47.696;9.140;2023-08-20T22:32:07;5.77;;;4.97;;
60847;SDS011;46681;47.696;9.140;2023-08-20T22:34:35;5.80;;;4.73;;
60847;SDS011;46681;47.696;9.140;2023-08-20T22:37:01;4.73;;;4.40;;
60847;SDS011;46681;47.696;9.140;2023-08-20T22:39:32;4.70;;;4.37;;
60847;SDS011;46681;47.696;9.140;2023-08-20T22:41:58;5.43;;;4.63;;
60847;SDS011;46681;47.696;9.140;2023-08-20T22:44:25;5.30;;;4.87;;
60847;SDS011;46681;47.696;9.140;2023-08-20T22:46:54;4.90;;;4.30;;
60847;SDS011;46681;47.696;9.140;2023-08-20T22:49:20;5.33;;;4.70;;
60847;SDS011;46681;47.696;9.140;2023-08-20T22:51:49;4.90;;;4.50;;
60847;SDS011;46681;47.696;9.140;2023-08-20T22:54:18;4.77;;;4.47;;
60847;SDS011;46681;47.696;9.140;2023-08-20T22:56:46;5.73;;;4.77;;
60847;SDS011;46681;47.696;9.140;2023-08-20T22:59:15;5.17;;;4.67;;
60847;SDS011;46681;47.696;9.140;2023-08-20T23:01:41;5.37;;;4.87;;
60847;SDS011;46681;47.696;9.140;2023-08-20T23:04:11;6.23;;;4.63;;
60847;SDS011;46681;47.696;9.140;2023-08-20T23:06:37;5.30;;;4.90;;
60847;SDS011;46681;47.696;9.140;2023-08-20T23:09:30;5.90;;;5.30;;
60847;SDS011;46681;47.696;9.140;2023-08-20T23:12:07;5.30;;;4.83;;
60847;SDS011;46681;47.696;9.140;2023-08-20T23:14:32;5.53;;;5.03;;
60847;SDS011;46681;47.696;9.140;2023-08-20T23:16:58;5.73;;;5.30;;
60847;SDS011;46681;47.696;9.140;2023-08-20T23:19:51;5.27;;;4.70;;
60847;SDS011;46681;47.696;9.140;2023-08-20T23:22:23;8.60;;;5.20;;
60847;SDS011;46681;47.696;9.140;2023-08-20T23:24:49;5.17;;;4.20;;
60847;SDS011;46681;47.696;9.140;2023-08-20T23:39:46;5.77;;;4.70;;
60847;SDS011;46681;47.696;9.140;2023-08-20T23:42:12;5.67;;;4.30;;
60847;SDS011;46681;47.696;9.140;2023-08-20T23:44:38;7.13;;;5.20;;
60847;SDS011;46681;47.696;9.140;2023-08-20T23:47:04;5.70;;;5.07;;
60847;SDS011;46681;47.696;9.140;2023-08-20T23:49:35;6.73;;;5.20;;
60847;SDS011;46681;47.696;9.140;2023-08-20T23:52:06;5.80;;;5.20;;
60847;SDS011;46681;47.696;9.140;2023-08-20T23:54:34;5.90;;;5.40;;
60847;SDS011;46681;47.696;9.140;2023-08-20T23:57:00;5.60;;;5.10;;
